Time;durP1;ratioP1;P1;durP2;ratioP2;P2;SDS_P1;SDS_P2;PMS_P1;PMS_P2;Temp;Humidity;BMP_temperature;BMP_pressure;BME280_temperature;BME280_humidity;BME280_pressure;Samples;Min_cycle;Max_cycle;Signal;HPM_P1;HPM_P2
2022/12/27 00:01:16;;;;;;;1.50;1.40;;;;;;;18.82;48.18;97884.84;4976533;28;20193;-94
2022/12/27 00:03:43;;;;;;;1.70;1.60;;;;;;;18.91;48.29;97902.22;4948285;28;20220;-92
2022/12/27 00:06:18;;;;;;;1.63;1.53;;;;;;;18.87;48.01;97915.63;4977199;28;20192;-90
2022/12/27 00:08:44;;;;;;;1.70;1.60;;;;;;;18.67;48.12;97881.59;4960920;28;20223;-92
2022/12/27 00:11:13;;;;;;;1.50;1.40;;;;;;;18.56;48.24;97874.28;4976387;28;20192;-93
2022/12/27 00:13:40;;;;;;;1.50;1.40;;;;;;;19.03;48.19;97967.31;4974313;28;20213;-92
2022/12/27 00:16:08;;;;;;;1.70;1.60;;;;;;;19.38;48.16;98027.56;4973565;28;20191;-89
2022/12/27 00:18:35;;;;;;;1.40;1.30;;;;;;;19.39;48.15;98042.09;4961678;28;20303;-93
2022/12/27 00:21:02;;;;;;;1.80;1.70;;;;;;;18.53;48.10;97894.50;4978833;28;20181;-92
2022/12/27 00:23:31;;;;;;;1.50;1.40;;;;;;;18.68;48.15;97915.56;4972675;28;20232;-91
2022/12/27 00:26:02;;;;;;;1.40;1.30;;;;;;;18.51;48.30;97881.72;4945659;28;20205;-92
2022/12/27 00:28:30;;;;;;;1.50;1.40;;;;;;;18.96;48.14;97942.38;4970507;28;20192;-90
2022/12/27 00:30:57;;;;;;;1.60;1.50;;;;;;;18.91;48.15;97927.69;4950349;28;20212;-93
2022/12/27 00:33:24;;;;;;;1.77;1.57;;;;;;;18.41;48.03;97848.13;4978485;28;20205;-92
2022/12/27 00:35:50;;;;;;;1.47;1.37;;;;;;;18.31;48.00;97851.88;4961646;28;20211;-92
2022/12/27 00:38:17;;;;;;;1.53;1.43;;;;;;;18.55;48.23;97887.78;4968990;28;20220;-92
2022/12/27 00:40:43;;;;;;;1.63;1.53;;;;;;;18.48;47.94;97875.59;4970672;28;20208;-92
2022/12/27 00:43:12;;;;;;;1.70;1.60;;;;;;;18.78;48.00;97950.84;4968639;28;20300;-93
2022/12/27 00:45:39;;;;;;;1.73;1.63;;;;;;;19.56;47.98;98093.03;4976974;28;20203;-93
2022/12/27 00:48:05;;;;;;;1.70;1.60;;;;;;;18.31;48.00;97882.41;4958597;28;20216;-89
2022/12/27 00:50:32;;;;;;;1.60;1.50;;;;;;;18.79;47.99;97947.47;4973601;28;20837;-91
2022/12/27 00:52:58;;;;;;;1.50;1.40;;;;;;;18.49;48.17;97896.03;4979724;28;20205;-93
2022/12/27 00:55:25;;;;;;;1.30;1.20;;;;;;;19.66;48.27;98110.47;4978169;28;20228;-92
2022/12/27 00:57:51;;;;;;;1.63;1.53;;;;;;;19.38;48.24;98064.13;4979656;28;20201;-93
2022/12/27 01:00:18;;;;;;;1.40;1.30;;;;;;;17.85;48.04;97805.56;4979240;28;20216;-93
2022/12/27 01:03:06;;;;;;;1.50;1.40;;;;;;;19.83;48.05;98158.03;4971308;28;20255;-94
2022/12/27 01:05:36;;;;;;;1.50;1.40;;;;;;;19.38;48.26;98078.53;4970868;28;20195;-92
2022/12/27 01:08:03;;;;;;;1.33;1.30;;;;;;;18.48;48.17;97923.94;4979635;28;20208;-90
2022/12/27 01:10:30;;;;;;;1.33;1.30;;;;;;;19.18;48.07;98046.13;4944015;28;20231;-91
2022/12/27 01:12:56;;;;;;;1.50;1.40;;;;;;;19.25;48.13;98082.19;4948314;28;20221;-93
2022/12/27 01:15:23;;;;;;;1.50;1.40;;;;;;;18.99;48.15;98020.59;4979941;28;20211;-91
2022/12/27 01:17:53;;;;;;;1.40;1.30;;;;;;;19.77;48.18;98174.72;4969687;28;20196;-93
2022/12/27 01:20:19;;;;;;;1.53;1.43;;;;;;;19.80;48.26;98170.66;4979335;28;20208;-93
2022/12/27 01:22:46;;;;;;;1.60;1.47;;;;;;;18.64;48.10;97993.47;4963492;28;20188;-92
2022/12/27 01:25:13;;;;;;;1.30;1.20;;;;;;;18.48;48.30;97978.28;4979691;28;20188;-94
2022/12/27 01:27:39;;;;;;;1.77;1.60;;;;;;;19.35;48.19;98102.22;4967758;28;20191;-93
2022/12/27 01:30:06;;;;;;;1.33;1.27;;;;;;;18.48;48.02;97985.91;4978730;28;20224;-91
2022/12/27 01:32:33;;;;;;;1.30;1.20;;;;;;;19.34;48.18;98118.31;4971514;28;20196;-91
2022/12/27 01:35:00;;;;;;;1.43;1.33;;;;;;;18.48;48.31;97979.94;4979073;28;20185;-93
2022/12/27 01:37:27;;;;;;;1.37;1.27;;;;;;;18.21;48.09;97949.75;4970742;28;20264;-93
2022/12/27 01:39:54;;;;;;;1.40;1.30;;;;;;;19.35;48.29;98130.25;4946648;28;20268;-93
2022/12/27 01:45:20;;;;;;;1.33;1.23;;;;;;;18.38;48.28;97987.94;4973245;28;20196;-93
2022/12/27 01:47:53;;;;;;;1.50;1.40;;;;;;;19.79;48.44;98216.47;4962279;28;20200;-90
2022/12/27 01:50:35;;;;;;;1.37;1.27;;;;;;;19.31;48.32;98148.75;4978588;28;20280;-92
2022/12/27 01:53:27;;;;;;;1.50;1.40;;;;;;;18.63;48.21;98040.09;4971158;28;20220;-91
2022/12/27 01:56:32;;;;;;;1.40;1.30;;;;;;;19.78;48.27;98223.25;4958682;28;20220;-91
2022/12/27 01:59:01;;;;;;;1.40;1.30;;;;;;;18.74;48.05;98048.25;4953299;28;20213;-92
2022/12/27 02:01:32;;;;;;;1.30;1.20;;;;;;;18.47;48.43;98007.03;4926938;28;20188;-92
2022/12/27 02:04:11;;;;;;;1.13;1.13;;;;;;;19.77;48.45;98239.38;4947853;28;20227;-92
2022/12/27 02:06:38;;;;;;;1.40;1.30;;;;;;;19.07;48.37;98144.97;4948509;28;20268;-92
2022/12/27 02:09:26;;;;;;;1.10;1.10;;;;;;;18.93;48.28;98107.78;4977078;28;20204;-93
2022/12/27 02:11:55;;;;;;;1.40;1.30;;;;;;;18.54;48.28;98049.84;4977508;28;20259;-92
2022/12/27 02:14:45;;;;;;;1.43;1.33;;;;;;;18.76;48.30;98102.66;4974542;28;20216;-92
2022/12/27 02:17:16;;;;;;;1.13;1.13;;;;;;;19.05;48.12;98159.31;4962559;28;20184;-93
2022/12/27 02:19:54;;;;;;;1.40;1.30;;;;;;;18.43;48.42;98061.16;4971628;28;20216;-93
2022/12/27 02:25:36;;;;;;;1.40;1.30;;;;;;;19.76;48.30;98298.84;4977776;28;20255;-88
2022/12/27 02:28:18;;;;;;;1.23;1.17;;;;;;;19.75;48.51;98297.06;4971184;28;20188;-91
2022/12/27 02:30:46;;;;;;;1.30;1.20;;;;;;;19.25;48.17;98207.06;4975025;28;20268;-88
2022/12/27 02:33:20;;;;;;;1.30;1.20;;;;;;;18.62;48.23;98124.88;4965194;28;20189;-92
2022/12/27 02:35:54;;;;;;;1.30;1.30;;;;;;;18.64;48.41;98120.75;4961892;28;20204;-92
2022/12/27 02:38:26;;;;;;;1.10;1.10;;;;;;;18.81;48.82;98154.69;4960178;28;20300;-92
2022/12/27 02:55:26;;;;;;;1.50;1.40;;;;;;;19.74;48.50;98337.81;4978404;28;20196;-92
2022/12/27 02:58:12;;;;;;;1.13;1.13;;;;;;;19.75;48.37;98342.13;4977957;28;20230;-92
2022/12/27 03:04:48;;;;;;;1.47;1.37;;;;;;;18.87;48.21;98198.28;4948045;28;20213;-90
2022/12/27 03:07:32;;;;;;;1.37;1.27;;;;;;;19.73;48.48;98344.59;4949486;28;20188;-92
2022/12/27 03:16:13;;;;;;;1.20;1.20;;;;;;;18.69;48.13;98198.25;4974438;28;20185;-93
2022/12/27 03:18:51;;;;;;;1.10;1.10;;;;;;;19.74;48.44;98365.84;4974702;28;20204;-91
2022/12/27 03:26:58;;;;;;;1.40;1.30;;;;;;;19.30;48.35;98310.09;4977160;28;20251;-91
2022/12/27 03:35:02;;;;;;;1.30;1.20;;;;;;;18.54;48.27;98201.66;4970745;28;20208;-92
2022/12/27 03:40:38;;;;;;;1.33;1.27;;;;;;;19.73;48.50;98421.13;4951210;28;20204;-93
2022/12/27 03:43:12;;;;;;;1.13;1.13;;;;;;;18.92;48.41;98278.34;4969961;28;20196;-92
2022/12/27 03:48:52;;;;;;;1.10;1.10;;;;;;;19.73;48.50;98422.78;4968971;28;20184;-90
2022/12/27 03:51:20;;;;;;;1.30;1.20;;;;;;;19.33;48.29;98362.94;4979915;28;20222;-91
2022/12/27 03:53:46;;;;;;;1.10;1.10;;;;;;;18.36;48.31;98213.41;4979539;28;20185;-91
2022/12/27 03:56:13;;;;;;;1.23;1.20;;;;;;;18.54;48.01;98253.47;4953843;28;20193;-89
2022/12/27 03:58:39;;;;;;;1.10;1.10;;;;;;;18.73;48.02;98293.47;4972921;28;20252;-91
2022/12/27 04:01:06;;;;;;;1.20;1.20;;;;;;;19.26;48.29;98361.69;4963685;28;20255;-92
2022/12/27 04:03:33;;;;;;;1.00;1.00;;;;;;;19.29;48.42;98369.53;4974119;28;20212;-93
2022/12/27 04:05:59;;;;;;;1.03;1.03;;;;;;;18.20;48.29;98193.91;4969870;28;20196;-92
2022/12/27 04:35:57;;;;;;;1.10;1.10;;;;;;;19.01;48.23;98362.91;4980518;28;20188;-92
2022/12/27 04:38:31;;;;;;;1.10;1.10;;;;;;;19.25;48.70;98395.63;4965175;28;20192;-92
2022/12/27 04:55:16;;;;;;;1.23;1.17;;;;;;;19.72;48.59;98502.66;4972170;28;20192;-92
2022/12/27 04:57:42;;;;;;;1.27;1.17;;;;;;;18.36;48.39;98270.28;4976930;28;20228;-91
2022/12/27 05:02:55;;;;;;;1.10;1.10;;;;;;;17.91;48.57;98197.44;4978205;28;20192;-92
2022/12/27 05:05:22;;;;;;;1.20;1.10;;;;;;;19.55;48.45;98478.81;4974947;28;20214;-92
2022/12/27 05:16:04;;;;;;;1.00;1.00;;;;;;;18.79;48.35;98340.50;4979890;28;20188;-92
2022/12/27 05:18:31;;;;;;;1.00;1.00;;;;;;;18.46;48.45;98284.38;4971310;28;20192;-92
2022/12/27 05:21:02;;;;;;;1.07;1.07;;;;;;;18.85;48.24;98357.78;4971627;28;20223;-92
2022/12/27 05:26:21;;;;;;;1.10;1.10;;;;;;;18.83;48.48;98378.06;4972580;28;20219;-92
2022/12/27 05:28:47;;;;;;;1.10;1.00;;;;;;;18.91;48.38;98391.19;4974847;28;20228;-91
2022/12/27 05:31:14;;;;;;;1.00;1.00;;;;;;;19.24;48.91;98442.28;4978877;28;20200;-92
2022/12/27 05:33:41;;;;;;;1.00;1.00;;;;;;;19.25;48.43;98438.06;4958808;28;20201;-92
2022/12/27 05:36:08;;;;;;;1.23;1.13;;;;;;;18.97;48.42;98419.53;4971449;28;20259;-91
2022/12/27 05:38:35;;;;;;;1.00;1.00;;;;;;;18.37;48.19;98299.13;4961397;28;20192;-93
2022/12/27 05:41:02;;;;;;;0.90;0.90;;;;;;;18.83;48.42;98385.69;4965965;28;20248;-92
2022/12/27 05:43:28;;;;;;;1.03;1.03;;;;;;;19.72;48.53;98525.59;4963310;28;20195;-92
2022/12/27 05:45:55;;;;;;;1.07;1.07;;;;;;;18.52;48.39;98321.22;4976513;28;20219;-92
2022/12/27 05:48:21;;;;;;;1.00;1.00;;;;;;;18.43;48.38;98296.94;4973970;28;20314;-91
2022/12/27 05:50:48;;;;;;;0.97;0.97;;;;;;;18.31;48.54;98291.16;4967214;28;20204;-92
2022/12/27 05:53:14;;;;;;;0.90;0.90;;;;;;;19.29;48.33;98450.19;4981268;28;20245;-92
2022/12/27 05:55:41;;;;;;;1.03;1.03;;;;;;;19.14;48.30;98441.72;4979366;28;20223;-92
2022/12/27 05:58:08;;;;;;;0.97;0.97;;;;;;;18.51;48.36;98318.59;4978227;28;20188;-92
2022/12/27 06:00:34;;;;;;;1.00;1.00;;;;;;;19.52;48.85;98491.41;4977731;28;20204;-91
2022/12/27 06:03:02;;;;;;;1.00;1.00;;;;;;;18.37;48.48;98314.38;4977652;28;20207;-89
2022/12/27 06:05:29;;;;;;;1.00;1.00;;;;;;;19.14;48.49;98431.53;4974365;28;20220;-91
2022/12/27 06:07:55;;;;;;;1.20;1.20;;;;;;;19.16;48.37;98432.50;4978700;28;20260;-92
2022/12/27 06:10:22;;;;;;;1.20;1.20;;;;;;;18.91;48.37;98396.28;4977038;28;20216;-91
2022/12/27 06:12:48;;;;;;;0.90;0.90;;;;;;;19.55;48.45;98503.44;4974473;28;20299;-90
2022/12/27 06:15:15;;;;;;;1.20;1.10;;;;;;;19.39;48.27;98476.25;4966899;28;20208;-90
2022/12/27 06:17:42;;;;;;;1.20;1.10;;;;;;;18.39;48.80;98307.75;4962399;28;20192;-91
2022/12/27 06:20:09;;;;;;;1.03;1.03;;;;;;;19.67;48.18;98535.56;4960170;28;20228;-90
2022/12/27 06:22:36;;;;;;;1.00;1.00;;;;;;;18.42;48.22;98331.72;4956946;28;20196;-91
2022/12/27 06:25:03;;;;;;;1.93;1.20;;;;;;;19.29;48.34;98478.22;4962290;28;20215;-89
2022/12/27 06:27:30;;;;;;;1.10;1.10;;;;;;;18.69;48.42;98370.50;4966302;28;20208;-90
2022/12/27 06:29:56;;;;;;;1.17;1.10;;;;;;;18.70;48.28;98364.59;4965831;28;20232;-92
2022/12/27 06:32:23;;;;;;;1.10;1.10;;;;;;;17.97;48.23;98241.00;4965522;28;20189;-92
2022/12/27 06:34:49;;;;;;;0.90;0.90;;;;;;;18.42;48.34;98328.28;4967459;28;20184;-90
2022/12/27 06:37:17;;;;;;;1.27;1.17;;;;;;;19.56;48.21;98526.47;4965047;28;20211;-90
2022/12/27 06:39:43;;;;;;;0.90;0.90;;;;;;;19.00;48.39;98425.69;4962127;28;20215;-90
2022/12/27 06:42:10;;;;;;;1.10;1.10;;;;;;;19.37;48.34;98498.25;4963732;28;20189;-89
2022/12/27 06:44:37;;;;;;;1.00;1.00;;;;;;;19.43;48.40;98515.53;4963508;28;21203;-91
2022/12/27 06:47:03;;;;;;;0.90;0.90;;;;;;;19.41;48.17;98515.47;4963623;28;20293;-90
2022/12/27 06:49:30;;;;;;;1.10;1.10;;;;;;;18.44;48.20;98353.00;4959299;28;20204;-89
2022/12/27 06:51:57;;;;;;;1.10;1.10;;;;;;;19.58;48.33;98546.94;4962388;28;20215;-89
2022/12/27 06:54:25;;;;;;;0.90;0.90;;;;;;;18.30;48.19;98318.28;4963306;28;20180;-90
2022/12/27 06:56:52;;;;;;;1.00;1.00;;;;;;;19.22;48.18;98486.31;4963932;28;20220;-90
2022/12/27 06:59:18;;;;;;;1.30;1.20;;;;;;;19.23;48.35;98488.06;4960176;28;20248;-88
2022/12/27 07:01:45;;;;;;;1.10;1.10;;;;;;;19.26;48.30;98499.31;4960052;28;20196;-89
2022/12/27 07:04:12;;;;;;;1.20;1.10;;;;;;;18.38;48.19;98356.91;4959859;28;20189;-90
2022/12/27 07:06:38;;;;;;;1.20;1.10;;;;;;;19.08;48.03;98457.56;4961918;28;20180;-89
2022/12/27 07:09:05;;;;;;;0.80;0.80;;;;;;;19.51;48.33;98539.78;4962311;28;20212;-91
2022/12/27 07:11:32;;;;;;;0.97;0.97;;;;;;;18.63;48.13;98413.44;4964621;28;20196;-91
2022/12/27 07:13:59;;;;;;;1.10;1.10;;;;;;;19.38;48.42;98502.53;4963152;28;20260;-91
2022/12/27 07:16:26;;;;;;;1.13;1.10;;;;;;;18.09;48.25;98292.53;4961956;28;20188;-90
2022/12/27 07:18:54;;;;;;;0.93;0.93;;;;;;;18.32;48.10;98349.75;4944418;28;20243;-91
2022/12/27 07:21:22;;;;;;;1.10;1.10;;;;;;;18.14;48.23;98300.41;4966376;28;20664;-90
2022/12/27 07:23:48;;;;;;;1.07;1.07;;;;;;;18.86;47.84;98423.22;4964066;28;20195;-89
2022/12/27 07:26:17;;;;;;;0.83;0.83;;;;;;;19.65;48.11;98575.41;4964526;28;20227;-90
2022/12/27 07:28:44;;;;;;;1.00;1.00;;;;;;;18.33;47.94;98349.00;4951023;28;20204;-91
2022/12/27 07:31:15;;;;;;;0.90;0.90;;;;;;;19.29;48.16;98513.91;4967420;28;20214;-90
2022/12/27 07:33:42;;;;;;;0.80;0.80;;;;;;;19.73;48.10;98602.19;4967564;28;20231;-92
2022/12/27 07:36:13;;;;;;;0.90;0.90;;;;;;;19.27;48.10;98518.94;4967362;28;20220;-91
2022/12/27 07:38:40;;;;;;;1.03;0.97;;;;;;;18.56;48.04;98399.50;4966686;28;20188;-91
2022/12/27 07:41:07;;;;;;;0.97;0.97;;;;;;;19.24;48.10;98511.09;4966980;28;20200;-90
2022/12/27 07:43:34;;;;;;;1.10;1.00;;;;;;;18.76;48.18;98426.03;4965201;28;20195;-91
2022/12/27 07:46:08;;;;;;;1.10;1.10;;;;;;;18.70;48.18;98416.41;4964480;28;20241;-90
2022/12/27 07:48:35;;;;;;;1.80;1.00;;;;;;;19.74;48.04;98596.28;4965513;28;20189;-92
2022/12/27 07:51:02;;;;;;;0.90;0.90;;;;;;;19.30;48.12;98525.88;4962543;28;20180;-89
2022/12/27 07:53:29;;;;;;;0.97;0.97;;;;;;;18.62;48.00;98414.25;4983233;28;20216;-89
2022/12/27 07:55:55;;;;;;;1.10;1.10;;;;;;;18.61;48.29;98402.28;4965710;28;20204;-90
2022/12/27 07:58:23;;;;;;;1.10;1.00;;;;;;;18.99;48.43;98486.75;4968151;28;20469;-91
2022/12/27 08:00:50;;;;;;;1.00;1.00;;;;;;;19.03;48.27;98474.25;4966551;28;20204;-90
2022/12/27 08:03:17;;;;;;;1.20;1.10;;;;;;;19.60;48.16;98578.50;4967031;28;20208;-90
2022/12/27 08:05:45;;;;;;;1.27;1.17;;;;;;;19.74;48.15;98601.41;4968786;28;20224;-91
2022/12/27 08:08:16;;;;;;;1.13;1.03;;;;;;;18.90;48.07;98451.47;4966021;28;20670;-90
2022/12/27 08:10:43;;;;;;;1.10;1.10;;;;;;;18.60;48.39;98406.53;4964585;28;20213;-91
2022/12/27 08:13:10;;;;;;;1.27;1.17;;;;;;;18.86;48.23;98452.09;4967924;28;20220;-89
2022/12/27 08:15:37;;;;;;;1.13;1.10;;;;;;;19.34;48.44;98535.44;4989505;23;20704;-89
2022/12/27 08:18:03;;;;;;;1.20;1.10;;;;;;;19.21;48.46;98536.41;4959010;28;20212;-88
2022/12/27 08:20:30;;;;;;;1.00;1.00;;;;;;;19.72;48.45;98615.72;4938920;29;20208;-89
2022/12/27 08:22:57;;;;;;;3.50;1.30;;;;;;;18.95;46.75;98483.16;4957221;28;20205;-88
2022/12/27 08:25:23;;;;;;;15.03;1.60;;;;;;;19.06;43.40;98509.19;4951890;28;20282;-89
2022/12/27 08:27:50;;;;;;;1.83;1.47;;;;;;;18.80;41.25;98473.81;4955604;28;20212;-90
2022/12/27 08:30:17;;;;;;;3.00;1.83;;;;;;;19.06;41.11;98517.75;4936579;28;20212;-90
2022/12/27 08:32:43;;;;;;;5.37;1.70;;;;;;;19.53;40.96;98619.75;4943239;28;20200;-88
2022/12/27 08:35:10;;;;;;;6.97;1.80;;;;;;;19.61;42.11;98621.94;4925444;28;20875;-88
2022/12/27 08:38:00;;;;;;;5.00;1.80;;;;;;;18.61;41.58;98440.47;4954397;28;20208;-89
2022/12/27 08:40:26;;;;;;;2.30;1.60;;;;;;;19.12;42.82;98540.13;4932632;29;20313;-89
2022/12/27 08:42:53;;;;;;;2.73;1.60;;;;;;;19.25;42.92;98561.28;4930546;28;20204;-88
2022/12/27 08:45:19;;;;;;;4.30;1.83;;;;;;;19.65;42.70;98648.47;4932757;29;20626;-88
2022/12/27 08:47:46;;;;;;;3.40;1.80;;;;;;;18.88;42.53;98505.66;4952249;28;20204;-89
2022/12/27 08:50:12;;;;;;;2.50;1.80;;;;;;;19.06;43.84;98527.03;4922763;28;20216;-87
2022/12/27 08:52:39;;;;;;;3.27;1.80;;;;;;;19.08;43.76;98543.31;4952788;28;20235;-86
2022/12/27 08:55:06;;;;;;;3.37;1.90;;;;;;;19.20;43.81;98555.06;4944833;28;20278;-88
2022/12/27 08:57:32;;;;;;;3.80;1.50;;;;;;;19.07;44.16;98536.47;4936512;28;20299;-87
2022/12/27 08:59:59;;;;;;;2.47;1.70;;;;;;;19.18;44.27;98560.84;4952994;28;20208;-88
2022/12/27 09:02:25;;;;;;;3.33;1.50;;;;;;;19.63;44.20;98648.38;4932610;28;20250;-88
2022/12/27 09:04:52;;;;;;;2.53;1.43;;;;;;;18.86;44.79;98510.66;4952566;28;20712;-89
2022/12/27 09:07:19;;;;;;;3.87;1.50;;;;;;;19.09;44.46;98553.56;4944075;28;20686;-87
2022/12/27 09:09:45;;;;;;;5.43;1.70;;;;;;;18.77;45.10;98499.13;4957183;28;20232;-89
2022/12/27 09:12:12;;;;;;;3.83;1.80;;;;;;;18.81;44.86;98514.66;4958848;28;20306;-88
2022/12/27 09:14:38;;;;;;;2.87;1.70;;;;;;;19.28;45.06;98581.88;4966192;28;20259;-89
2022/12/27 09:17:07;;;;;;;2.63;1.70;;;;;;;19.27;45.25;98602.19;4938346;28;20212;-89
2022/12/27 09:19:35;;;;;;;5.73;1.67;;;;;;;19.00;45.10;98547.97;4942262;28;20208;-89
2022/12/27 09:22:01;;;;;;;5.50;1.90;;;;;;;19.00;44.96;98550.53;4959378;28;20211;-88
2022/12/27 09:24:28;;;;;;;5.17;1.70;;;;;;;19.48;44.80;98634.81;4914086;28;20274;-89
2022/12/27 09:26:54;;;;;;;5.90;1.70;;;;;;;19.18;44.94;98566.81;4930590;29;20730;-89
2022/12/27 09:29:21;;;;;;;7.57;1.93;;;;;;;19.15;45.25;98568.31;4921974;28;20226;-88
2022/12/27 09:31:47;;;;;;;4.70;1.73;;;;;;;19.13;44.56;98559.72;4959927;28;20208;-89
2022/12/27 09:34:14;;;;;;;7.23;2.10;;;;;;;19.27;44.42;98576.69;4937432;28;20295;-88
2022/12/27 09:36:41;;;;;;;6.30;2.33;;;;;;;19.22;44.79;98567.88;4962325;28;20232;-89
2022/12/27 09:39:10;;;;;;;10.67;2.30;;;;;;;19.05;44.35;98549.13;4923239;28;20685;-89
2022/12/27 09:41:40;;;;;;;5.77;2.10;;;;;;;19.74;44.73;98665.16;4918123;28;20210;-89
2022/12/27 09:44:47;;;;;;;8.23;2.30;;;;;;;19.77;44.74;98669.53;4946824;28;20249;-88
2022/12/27 09:47:15;;;;;;;10.80;2.30;;;;;;;19.34;44.86;98589.84;4948382;28;20302;-88
2022/12/27 09:49:44;;;;;;;10.10;2.70;;;;;;;19.22;44.91;98567.88;4945547;28;20270;-89
2022/12/27 09:52:33;;;;;;;8.23;2.37;;;;;;;18.86;45.06;98512.34;4930209;28;20216;-87
2022/12/27 09:55:00;;;;;;;3.23;2.07;;;;;;;19.76;45.10;98652.50;4933154;28;20251;-88
2022/12/27 09:57:41;;;;;;;4.63;1.77;;;;;;;18.33;45.21;98391.38;4945659;28;20227;-88
2022/12/27 10:00:19;;;;;;;2.73;2.13;;;;;;;18.94;45.40;98506.00;4931883;28;20216;-89
2022/12/27 10:03:02;;;;;;;7.17;2.03;;;;;;;19.76;45.60;98643.16;4938086;28;20208;-88
2022/12/27 10:05:31;;;;;;;4.43;1.90;;;;;;;19.09;45.49;98522.13;4950843;28;20347;-89
2022/12/27 10:08:11;;;;;;;6.13;2.00;;;;;;;19.76;45.68;98643.16;4940322;28;20823;-88
2022/12/27 10:10:44;;;;;;;4.70;1.80;;;;;;;19.32;45.67;98570.16;4949765;28;20320;-89
2022/12/27 10:13:41;;;;;;;2.00;1.77;;;;;;;19.78;45.91;98648.34;4954789;28;20579;-89
2022/12/27 10:16:19;;;;;;;1.93;1.70;;;;;;;19.14;45.92;98533.44;4938098;28;20315;-89
2022/12/27 10:19:19;;;;;;;4.67;1.90;;;;;;;19.78;45.80;98644.09;4954001;28;20219;-89
2022/12/27 10:22:13;;;;;;;3.10;1.83;;;;;;;19.58;46.03;98609.03;4935075;28;20200;-88
2022/12/27 10:24:46;;;;;;;3.57;1.67;;;;;;;19.44;46.14;98581.91;4944310;28;20339;-87
2022/12/27 10:27:14;;;;;;;3.27;1.60;;;;;;;19.33;45.89;98565.13;4935881;28;20312;-89
2022/12/27 10:29:42;;;;;;;4.97;1.80;;;;;;;19.77;45.96;98639.81;4921132;28;20300;-89
2022/12/27 10:32:13;;;;;;;2.33;1.50;;;;;;;19.32;46.16;98572.69;4953111;28;23568;-89
2022/12/27 10:34:39;;;;;;;2.43;1.70;;;;;;;19.39;46.14;98575.66;4922621;28;20231;-88
2022/12/27 10:37:07;;;;;;;2.70;1.43;;;;;;;19.82;46.11;98650.25;4935672;28;21259;-87
2022/12/27 10:39:34;;;;;;;4.53;1.80;;;;;;;19.21;46.18;98543.16;4952012;28;20683;-89
2022/12/27 10:42:09;;;;;;;2.93;1.60;;;;;;;19.82;46.18;98648.59;4939940;28;20880;-87
2022/12/27 10:44:35;;;;;;;4.23;1.63;;;;;;;18.53;46.57;98424.78;4954565;28;20254;-89
2022/12/27 10:47:02;;;;;;;2.67;1.57;;;;;;;19.83;46.17;98652.00;4950759;28;20230;-86
2022/12/27 10:49:30;;;;;;;5.17;1.70;;;;;;;19.62;46.14;98618.59;4933061;28;20695;-89
2022/12/27 10:52:07;;;;;;;4.33;1.93;;;;;;;19.44;46.29;98584.44;4931864;28;20224;-87
2022/12/27 10:54:34;;;;;;;2.37;1.63;;;;;;;18.42;46.33;98412.25;4939910;28;20593;-88
2022/12/27 10:57:25;;;;;;;2.43;1.50;;;;;;;19.31;46.43;98573.50;4936604;28;20207;-89
2022/12/27 11:00:17;;;;;;;3.67;1.80;;;;;;;19.86;46.53;98659.81;4933799;28;20227;-86
2022/12/27 11:02:54;;;;;;;1.77;1.53;;;;;;;19.34;46.49;98568.56;4947399;28;20207;-89
2022/12/27 11:05:29;;;;;;;2.27;1.57;;;;;;;19.49;46.02;98595.78;4933686;28;20233;-90
2022/12/27 11:07:55;;;;;;;3.00;1.70;;;;;;;19.11;46.27;98510.34;4920259;28;20317;-86
2022/12/27 11:10:27;;;;;;;2.77;1.60;;;;;;;19.31;46.39;98563.31;4918811;28;20240;-87
2022/12/27 11:12:57;;;;;;;1.73;1.63;;;;;;;18.92;46.29;98479.59;4922806;28;20691;-87
2022/12/27 11:15:25;;;;;;;5.90;1.50;;;;;;;18.75;46.22;98449.75;4938091;28;20730;-86
2022/12/27 11:17:56;;;;;;;2.60;1.50;;;;;;;19.22;46.46;98525.41;4926210;28;20569;-89
2022/12/27 11:20:39;;;;;;;1.83;1.70;;;;;;;19.88;46.41;98625.09;4931769;28;23733;-88
2022/12/27 11:23:08;;;;;;;2.53;1.50;;;;;;;19.87;46.41;98631.84;4939152;28;20240;-89
2022/12/27 11:25:54;;;;;;;3.13;1.60;;;;;;;19.87;46.43;98624.19;4962766;28;20233;-90
2022/12/27 11:28:28;;;;;;;1.67;1.57;;;;;;;19.87;46.59;98616.53;4943187;28;20679;-89
2022/12/27 11:30:56;;;;;;;1.57;1.47;;;;;;;19.63;46.37;98566.78;4965798;28;20207;-88
2022/12/27 11:33:38;;;;;;;1.90;1.47;;;;;;;19.87;46.27;98606.34;4960260;28;20218;-88
2022/12/27 11:36:07;;;;;;;2.30;1.60;;;;;;;19.09;46.41;98464.41;4929765;28;20329;-89
2022/12/27 11:38:34;;;;;;;2.30;1.53;;;;;;;19.67;46.53;98566.16;4933309;28;20675;-90
2022/12/27 11:41:02;;;;;;;3.50;1.60;;;;;;;19.89;46.47;98589.44;4953484;28;20292;-90
2022/12/27 11:43:31;;;;;;;1.80;1.40;;;;;;;19.66;46.54;98555.88;4944154;28;20216;-90
2022/12/27 11:45:57;;;;;;;1.57;1.40;;;;;;;17.91;46.71;98248.31;4954381;28;20239;-90
2022/12/27 11:48:29;;;;;;;1.67;1.37;;;;;;;18.18;46.59;98294.72;4939448;28;20201;-89
2022/12/27 11:51:15;;;;;;;3.43;1.40;;;;;;;19.20;46.57;98470.06;4959110;28;20296;-90
2022/12/27 11:53:48;;;;;;;2.73;1.63;;;;;;;19.90;46.74;98590.34;4952823;28;20220;-89
2022/12/27 11:56:24;;;;;;;2.27;1.33;;;;;;;19.90;46.53;98592.88;4956257;28;20204;-88
2022/12/27 11:59:09;;;;;;;1.63;1.20;;;;;;;19.90;46.69;98593.75;4957968;28;20216;-89
2022/12/27 12:02:13;;;;;;;2.37;1.40;;;;;;;19.90;46.44;98588.63;4953381;28;20204;-89
2022/12/27 12:05:02;;;;;;;1.60;1.40;;;;;;;19.90;46.77;98586.09;4956368;28;20246;-90
2022/12/27 12:08:12;;;;;;;1.70;1.40;;;;;;;18.97;46.71;98424.66;4957805;28;20223;-91
2022/12/27 12:10:57;;;;;;;1.73;1.50;;;;;;;19.91;46.63;98586.97;4918069;28;20731;-91
2022/12/27 12:13:33;;;;;;;1.83;1.60;;;;;;;19.90;46.62;98580.13;4952177;28;20212;-89
2022/12/27 12:16:17;;;;;;;1.73;1.40;;;;;;;19.90;46.62;98580.97;4955899;28;20318;-90
2022/12/27 12:19:03;;;;;;;3.43;1.50;;;;;;;19.91;47.17;98586.97;4959431;28;20312;-91
2022/12/27 12:21:35;;;;;;;1.40;1.30;;;;;;;19.91;47.04;98584.41;4961406;28;20200;-89
2022/12/27 12:24:28;;;;;;;2.23;1.70;;;;;;;19.91;46.87;98581.88;4989162;28;20200;-91
2022/12/27 12:27:21;;;;;;;1.40;1.30;;;;;;;19.90;46.83;98583.53;4951473;28;20718;-90
2022/12/27 12:30:03;;;;;;;3.23;1.50;;;;;;;19.91;46.68;98587.88;4942153;29;20822;-89
2022/12/27 12:32:52;;;;;;;2.87;1.80;;;;;;;19.07;46.47;98443.03;4970780;28;20254;-90
2022/12/27 12:35:49;;;;;;;3.47;1.67;;;;;;;18.55;46.85;98346.84;4959633;28;20687;-92
2022/12/27 12:38:20;;;;;;;1.60;1.50;;;;;;;18.78;46.47;98389.69;4955239;28;20642;-87
2022/12/27 12:41:12;;;;;;;1.90;1.40;;;;;;;19.21;46.71;98459.97;4954667;28;20196;-90
2022/12/27 12:43:48;;;;;;;2.57;1.43;;;;;;;19.91;46.83;98584.41;4951284;28;20208;-89
2022/12/27 12:46:39;;;;;;;2.97;1.40;;;;;;;19.91;46.78;98582.75;4971915;28;20313;-88
2022/12/27 12:49:15;;;;;;;5.33;1.50;;;;;;;19.91;46.77;98587.88;4967036;28;20576;-89
2022/12/27 12:52:12;;;;;;;2.13;1.47;;;;;;;19.91;46.97;98574.22;4963441;28;20685;-90
2022/12/27 12:55:11;;;;;;;2.07;1.47;;;;;;;19.91;46.94;98571.66;4932091;28;20773;-89
2022/12/27 12:57:47;;;;;;;2.13;1.47;;;;;;;19.91;46.67;98574.22;4959800;28;20202;-89
2022/12/27 13:00:26;;;;;;;3.20;1.60;;;;;;;19.51;46.70;98510.03;4958436;28;20208;-89
2022/12/27 13:03:17;;;;;;;1.63;1.50;;;;;;;19.91;46.77;98572.56;4945105;28;20215;-89
2022/12/27 13:05:46;;;;;;;2.30;1.60;;;;;;;19.91;46.67;98564.91;4967396;28;20270;-89
2022/12/27 13:08:25;;;;;;;3.67;1.80;;;;;;;19.90;46.97;98570.78;4964122;28;20768;-86
2022/12/27 13:11:03;;;;;;;3.13;1.40;;;;;;;18.78;46.60;98382.06;4966243;28;20586;-89
2022/12/27 13:14:00;;;;;;;2.40;1.70;;;;;;;19.92;46.92;98575.97;4943634;28;20210;-89
2022/12/27 13:16:47;;;;;;;1.77;1.50;;;;;;;19.51;46.90;98496.44;4958485;28;20633;-89
2022/12/27 13:19:20;;;;;;;3.33;1.80;;;;;;;19.32;46.77;98450.34;4953357;28;20199;-89
2022/12/27 13:22:07;;;;;;;4.30;1.87;;;;;;;19.92;46.91;98566.63;4957013;28;20200;-89
2022/12/27 13:25:05;;;;;;;3.30;2.00;;;;;;;19.93;46.74;98554.78;4979799;28;20224;-90
2022/12/27 13:27:46;;;;;;;2.60;1.57;;;;;;;19.93;47.06;98553.06;4967427;28;20224;-89
2022/12/27 13:30:20;;;;;;;1.73;1.40;;;;;;;19.92;46.75;98548.78;4966462;28;20642;-87
2022/12/27 13:33:21;;;;;;;3.77;1.80;;;;;;;19.77;46.79;98525.03;4968385;28;20481;-87
2022/12/27 13:36:19;;;;;;;4.87;1.73;;;;;;;19.93;47.00;98550.53;4963727;28;20228;-88
2022/12/27 13:38:55;;;;;;;1.97;1.60;;;;;;;19.42;46.26;98461.13;4941575;28;20232;-89
2022/12/27 13:41:37;;;;;;;3.77;1.87;;;;;;;19.73;46.21;98514.59;4957767;28;20577;-88